Погода Волчковона неделю

Пензенская область, Россия

28 мая-03 июня
  • 28мая
    Сегодня
    +9°
    +24°
    Ясно и безоблачно
    ВремяПогодаТемператураВлажностьДавлениеВетер, м/сВероятность осадков
    00:00Ясно и безоблачно+11°C51 %754 мм0.6 м/с2 %
    03:00Ясно и безоблачно+9°C58 %754 мм0.5 м/с2 %
    06:00Ясно и безоблачно+12°C54 %754 мм0.7 м/с2 %
    09:00Ясно и безоблачно+19°C38 %754 мм1.5 м/с2 %
    12:00Ясно и безоблачно+21°C30 %754 мм1.8 м/с2 %
    15:00Ясно и безоблачно+23°C29 %753 мм1.6 м/с2 %
    18:00Ясно и безоблачно+23°C31 %751 мм1.6 м/с2 %
    21:00Ясно и безоблачно+16°C48 %751 мм0.0 м/с2 %
  • 29мая
    Среда
    +11°
    +26°
    Ясно и безоблачно
    ВремяПогодаТемператураВлажностьДавлениеВетер, м/сВероятность осадков
    00:00Ясно и безоблачно+12°C68 %750 мм0.0 м/с2 %
    03:00Ясно и безоблачно+10°C71 %750 мм0.1 м/с2 %
    06:00Ясно и безоблачно+14°C59 %750 мм0.3 м/с2 %
    09:00Ясно и безоблачно+21°C38 %750 мм1.3 м/с2 %
    12:00Ясно и безоблачно+24°C31 %749 мм1.6 м/с2 %
    15:00Ясно и безоблачно+25°C29 %748 мм1.6 м/с2 %
    18:00Ясно и безоблачно+25°C32 %747 мм1.5 м/с2 %
    21:00Практически безоблачно+17°C51 %746 мм0.0 м/с2 %
  • 30мая
    Четверг
    +15°
    +28°
    Практически безоблачно
    ВремяПогодаТемператураВлажностьДавлениеВетер, м/сВероятность осадков
    00:00Ясно и безоблачно+14°C65 %746 мм0.0 м/с2 %
    03:00Ясно и безоблачно+12°C69 %746 мм0.0 м/с2 %
    06:00Ясно и безоблачно+16°C56 %746 мм0.4 м/с2 %
    09:00Практически безоблачно+22°C33 %747 мм1.2 м/с2 %
    12:00Практически безоблачно+24°C26 %746 мм1.6 м/с2 %
    15:00Практически безоблачно+27°C26 %746 мм1.4 м/с4 %
    18:00Небольшая облачность+27°C34 %745 мм1.0 м/с2 %
    21:00Небольшая облачность+20°C50 %745 мм0.0 м/с3 %
  • 31мая
    Пятница
    +16°
    +30°
    Облачно с прояснениями
    ВремяПогодаТемператураВлажностьДавлениеВетер, м/сВероятность осадков
    00:00Облачно с прояснениями+17°C59 %745 мм0.3 м/с11 %
    03:00Ясно и безоблачно+16°C64 %745 мм0.5 м/с7 %
    06:00Ясно и безоблачно+18°C65 %745 мм0.8 м/с3 %
    09:00Ясно и безоблачно+24°C46 %746 мм1.8 м/с8 %
    12:00Небольшая облачность+28°C34 %745 мм2.1 м/с6 %
    15:00Облачно с прояснениями+29°C31 %744 мм1.8 м/с22 %
    18:00Облачно с прояснениями+29°C36 %744 мм0.9 м/с21 %
    21:00Небольшая облачность+22°C53 %744 мм1.1 м/с9 %
  • 01июня
    Суббота
    +15°
    +29°
    Облачно с прояснениями
    ВремяПогодаТемператураВлажностьДавлениеВетер, м/сВероятность осадков
    00:00Ясно и безоблачно+19°C60 %744 мм1.0 м/с7 %
    03:00Облачно с прояснениями+17°C70 %744 мм0.9 м/с11 %
    06:00Облачно с прояснениями+18°C64 %744 мм0.5 м/с14 %
    09:00Облачно с прояснениями+25°C44 %744 мм1.7 м/с11 %
    12:00Облачно с прояснениями+28°C32 %744 мм1.6 м/с17 %
    15:00Облачно с прояснениями+28°C34 %743 мм1.0 м/с42 %
    18:00Небольшая облачность, возможен дождь с грозой+25°C68 %744 мм1.2 м/с45 %
    21:00Облачно с прояснениями+20°C94 %745 мм0.3 м/с15 %
Мы используем cookies
Соглашаюсь